Raynesford, Montana
Current Conditions -  °F | °C
As of 8:56 PM on Sunday 25 Jan 2015 (Local Time) from KGFA Reporting Station
Clear Clear  
Wind Chill: 53°   Ceiling: Unl
Heat Index: 53°   Visibility: 10mi
Dew Point: 29°   Wind: 21mph
Humidity: 40%   Direction: 230°SW
Pressure: 30.09"   Gusts: NA
Location:  47.27°N, 110.73°W
Report Text: KGFA 260356Z AUTO 23018KT 10SM CLR 12/M02 A3009 RMK AO2 SLP201 T01181016
Loading
Personal Weather Stations






























Interactive Weather Map New forecast layout! Learn more

10-Day Weather Forecast

Advertisements
Track Severe Weather on mobile